Time,TemperatureF,DewpointF,PressureIn,WindDirection,WindDirectionDegrees,WindSpeedMPH,WindSpeedGustMPH,Humidity,HourlyPrecipIn,Conditions,Clouds,dailyrainin,SoftwareType,DateUTC
2017-07-25 00:03:00,73.6,73.3,30.04,ENE,75,0.0,0.0,99,0.00,,,0.00,Wunderground v.1.15,2017-07-25 05:03:00,
2017-07-25 00:13:00,73.7,73.4,30.04,ENE,75,0.0,0.0,99,0.00,,,0.00,Wunderground v.1.15,2017-07-25 05:13:00,
2017-07-25 00:18:00,73.6,73.3,30.04,ENE,75,0.0,0.0,99,0.00,,,0.00,Wunderground v.1.15,2017-07-25 05:18:00,
2017-07-25 00:23:00,73.6,73.3,30.05,ENE,75,0.0,0.0,99,0.00,,,0.00,Wunderground v.1.15,2017-07-25 05:23:00,
2017-07-25 00:33:00,73.5,73.2,30.05,ENE,75,0.0,0.0,99,0.00,,,0.00,Wunderground v.1.15,2017-07-25 05:33:00,
2017-07-25 00:38:00,73.4,73.1,30.05,ENE,75,0.0,0.0,99,0.00,,,0.00,Wunderground v.1.15,2017-07-25 05:38:00,
2017-07-25 00:43:00,73.3,73.0,30.04,ENE,75,0.0,0.0,99,0.00,,,0.00,Wunderground v.1.15,2017-07-25 05:43:00,
2017-07-25 00:53:00,73.2,72.9,30.04,ENE,75,0.0,0.0,99,0.00,,,0.00,Wunderground v.1.15,2017-07-25 05:53:00,
2017-07-25 00:58:00,73.1,72.8,30.03,ENE,75,0.0,0.0,99,0.00,,,0.00,Wunderground v.1.15,2017-07-25 05:58:00,
2017-07-25 01:03:00,73.1,72.8,30.03,ENE,75,0.0,0.0,99,0.00,,,0.00,Wunderground v.1.15,2017-07-25 06:03:00,
2017-07-25 01:13:00,73.0,72.7,30.04,ENE,75,0.0,0.0,99,0.00,,,0.00,Wunderground v.1.15,2017-07-25 06:13:00,
2017-07-25 01:18:00,73.0,72.7,30.03,ENE,75,0.0,0.0,99,0.00,,,0.00,Wunderground v.1.15,2017-07-25 06:18:00,
2017-07-25 01:23:00,73.2,72.9,30.03,ENE,75,0.0,0.0,99,0.00,,,0.00,Wunderground v.1.15,2017-07-25 06:23:00,
2017-07-25 01:33:00,73.3,73.0,30.03,ENE,75,0.0,0.0,99,0.00,,,0.00,Wunderground v.1.15,2017-07-25 06:33:00,
2017-07-25 01:38:00,73.2,72.9,30.03,ENE,75,0.0,0.0,99,0.00,,,0.00,Wunderground v.1.15,2017-07-25 06:38:00,
2017-07-25 01:43:00,73.1,72.8,30.03,ENE,75,0.0,0.0,99,0.00,,,0.00,Wunderground v.1.15,2017-07-25 06:43:00,
2017-07-25 01:48:00,72.8,72.5,30.03,ENE,75,0.0,0.0,99,0.00,,,0.00,Wunderground v.1.15,2017-07-25 06:48:00,
2017-07-25 01:58:00,72.6,72.3,30.03,ENE,75,0.0,0.0,99,0.00,,,0.00,Wunderground v.1.15,2017-07-25 06:58:00,
2017-07-25 02:03:00,72.6,72.3,30.03,ENE,75,0.0,0.0,99,0.00,,,0.00,Wunderground v.1.15,2017-07-25 07:03:00,
2017-07-25 02:13:00,72.5,72.2,30.03,ENE,75,0.0,0.0,99,0.00,,,0.00,Wunderground v.1.15,2017-07-25 07:13:00,
2017-07-25 02:18:00,72.4,72.1,30.03,ENE,75,0.0,0.0,99,0.00,,,0.00,Wunderground v.1.15,2017-07-25 07:18:00,
2017-07-25 02:23:00,72.4,72.1,30.03,ENE,75,0.0,0.0,99,0.00,,,0.00,Wunderground v.1.15,2017-07-25 07:23:00,
2017-07-25 02:28:00,72.4,72.1,30.03,ENE,75,0.0,0.0,99,0.00,,,0.00,Wunderground v.1.15,2017-07-25 07:28:00,
2017-07-25 02:38:00,72.5,72.2,30.03,ENE,75,0.0,0.0,99,0.00,,,0.00,Wunderground v.1.15,2017-07-25 07:38:00,
2017-07-25 02:43:00,72.4,72.1,30.03,ENE,75,0.0,0.0,99,0.00,,,0.00,Wunderground v.1.15,2017-07-25 07:43:00,
2017-07-25 02:48:00,72.3,72.0,30.03,ENE,75,0.0,0.0,99,0.00,,,0.00,Wunderground v.1.15,2017-07-25 07:48:00,
2017-07-25 02:58:00,72.4,72.1,30.02,ENE,75,0.0,0.0,99,0.00,,,0.00,Wunderground v.1.15,2017-07-25 07:58:00,
2017-07-25 03:03:00,72.4,72.1,30.02,ENE,75,0.0,0.0,99,0.00,,,0.00,Wunderground v.1.15,2017-07-25 08:03:00,
2017-07-25 03:13:00,72.4,72.1,30.03,ENE,75,0.0,0.0,99,0.00,,,0.00,Wunderground v.1.15,2017-07-25 08:13:00,
2017-07-25 03:18:00,72.3,72.0,30.03,ENE,75,0.0,0.0,99,0.00,,,0.00,Wunderground v.1.15,2017-07-25 08:18:00,
2017-07-25 03:23:00,72.3,72.0,30.03,ENE,75,0.0,0.0,99,0.00,,,0.00,Wunderground v.1.15,2017-07-25 08:23:00,
2017-07-25 03:33:00,72.3,72.0,30.03,ENE,75,0.0,0.0,99,0.00,,,0.00,Wunderground v.1.15,2017-07-25 08:33:00,
2017-07-25 03:38:00,72.3,72.0,30.03,ENE,75,0.0,0.0,99,0.00,,,0.00,Wunderground v.1.15,2017-07-25 08:38:00,
2017-07-25 03:43:00,72.3,72.0,30.03,ENE,75,0.0,0.0,99,0.00,,,0.00,Wunderground v.1.15,2017-07-25 08:43:00,
2017-07-25 03:48:00,72.4,72.1,30.03,ENE,75,0.0,0.0,99,0.00,,,0.00,Wunderground v.1.15,2017-07-25 08:48:00,
2017-07-25 03:53:00,72.3,72.0,30.03,ENE,75,0.0,0.0,99,0.00,,,0.00,Wunderground v.1.15,2017-07-25 08:53:00,
2017-07-25 04:03:00,72.3,72.0,30.03,ENE,75,0.0,0.0,99,0.00,,,0.00,Wunderground v.1.15,2017-07-25 09:03:00,
2017-07-25 04:13:00,72.4,72.1,30.04,ENE,75,0.0,0.0,99,0.00,,,0.00,Wunderground v.1.15,2017-07-25 09:13:00,
2017-07-25 04:18:00,72.4,72.1,30.04,ENE,75,0.0,0.0,99,0.00,,,0.00,Wunderground v.1.15,2017-07-25 09:18:00,
2017-07-25 04:23:00,72.3,72.0,30.05,ENE,75,0.0,0.0,99,0.00,,,0.00,Wunderground v.1.15,2017-07-25 09:23:00,
2017-07-25 04:28:00,72.2,71.9,30.05,ENE,75,0.0,0.0,99,0.00,,,0.00,Wunderground v.1.15,2017-07-25 09:28:00,
2017-07-25 04:38:00,72.1,71.8,30.05,ENE,75,0.0,0.0,99,0.00,,,0.00,Wunderground v.1.15,2017-07-25 09:38:00,
2017-07-25 04:43:00,72.1,71.8,30.05,ENE,75,0.0,0.0,99,0.00,,,0.00,Wunderground v.1.15,2017-07-25 09:43:00,
2017-07-25 04:48:00,72.1,71.8,30.05,ENE,75,0.0,0.0,99,0.00,,,0.00,Wunderground v.1.15,2017-07-25 09:48:00,
2017-07-25 04:53:00,72.1,71.8,30.05,ENE,75,0.0,0.0,99,0.00,,,0.00,Wunderground v.1.15,2017-07-25 09:53:00,
2017-07-25 04:58:00,72.1,71.8,30.06,ENE,75,0.0,0.0,99,0.00,,,0.00,Wunderground v.1.15,2017-07-25 09:58:00,
2017-07-25 05:08:00,72.0,71.7,30.06,ENE,75,0.0,0.0,99,0.00,,,0.00,Wunderground v.1.15,2017-07-25 10:08:00,
2017-07-25 05:18:00,71.9,71.6,30.06,ENE,75,0.0,0.0,99,0.00,,,0.00,Wunderground v.1.15,2017-07-25 10:18:00,
2017-07-25 05:23:00,71.9,71.6,30.06,ENE,75,0.0,0.0,99,0.00,,,0.00,Wunderground v.1.15,2017-07-25 10:23:00,
2017-07-25 05:28:00,71.9,71.6,30.06,ENE,75,0.0,0.0,99,0.00,,,0.00,Wunderground v.1.15,2017-07-25 10:28:00,
2017-07-25 05:33:00,71.9,71.6,30.06,ENE,75,0.0,0.0,99,0.00,,,0.00,Wunderground v.1.15,2017-07-25 10:33:00,
2017-07-25 05:43:00,71.9,71.6,30.06,ENE,75,0.0,0.0,99,0.00,,,0.00,Wunderground v.1.15,2017-07-25 10:43:00,
2017-07-25 05:48:00,72.0,71.7,30.06,ENE,75,0.0,0.0,99,0.00,,,0.00,Wunderground v.1.15,2017-07-25 10:48:00,
2017-07-25 05:53:00,72.1,71.8,30.07,ENE,75,0.0,0.0,99,0.00,,,0.00,Wunderground v.1.15,2017-07-25 10:53:00,
2017-07-25 06:03:00,71.9,71.6,30.07,ENE,75,0.0,0.0,99,0.00,,,0.00,Wunderground v.1.15,2017-07-25 11:03:00,
2017-07-25 06:13:00,72.0,71.7,30.07,ENE,75,0.0,0.0,99,0.00,,,0.00,Wunderground v.1.15,2017-07-25 11:13:00,
2017-07-25 06:18:00,72.1,71.8,30.07,ENE,75,0.0,0.0,99,0.00,,,0.00,Wunderground v.1.15,2017-07-25 11:18:00,
2017-07-25 06:23:00,72.1,71.8,30.07,ENE,75,0.0,0.0,99,0.00,,,0.00,Wunderground v.1.15,2017-07-25 11:23:00,
2017-07-25 06:28:00,72.2,71.9,30.08,ENE,75,0.0,0.0,99,0.00,,,0.00,Wunderground v.1.15,2017-07-25 11:28:00,
2017-07-25 06:33:00,72.2,71.9,30.08,ENE,75,0.0,0.0,99,0.00,,,0.00,Wunderground v.1.15,2017-07-25 11:33:00,
2017-07-25 06:43:00,72.2,71.9,30.08,ENE,75,0.0,0.0,99,0.00,,,0.00,Wunderground v.1.15,2017-07-25 11:43:00,
2017-07-25 06:48:00,72.2,71.9,30.08,ENE,75,0.0,0.0,99,0.00,,,0.00,Wunderground v.1.15,2017-07-25 11:48:00,
2017-07-25 06:53:00,72.3,72.0,30.08,ENE,75,0.0,0.0,99,0.00,,,0.00,Wunderground v.1.15,2017-07-25 11:53:00,
2017-07-25 06:58:00,72.5,72.2,30.08,ENE,75,0.0,0.0,99,0.00,,,0.00,Wunderground v.1.15,2017-07-25 11:58:00,
2017-07-25 07:08:00,72.9,72.6,30.09,ENE,75,0.0,0.0,99,0.00,,,0.00,Wunderground v.1.15,2017-07-25 12:08:00,
2017-07-25 07:18:00,73.4,73.1,30.09,ENE,75,0.0,0.0,99,0.00,,,0.00,Wunderground v.1.15,2017-07-25 12:18:00,
2017-07-25 07:23:00,73.7,73.4,30.09,ENE,75,0.0,0.0,99,0.00,,,0.00,Wunderground v.1.15,2017-07-25 12:23:00,
2017-07-25 07:28:00,73.9,73.6,30.09,ENE,75,0.0,0.0,99,0.00,,,0.00,Wunderground v.1.15,2017-07-25 12:28:00,
2017-07-25 07:33:00,74.1,73.8,30.09,ENE,75,0.0,0.0,99,0.00,,,0.00,Wunderground v.1.15,2017-07-25 12:33:00,
2017-07-25 07:38:00,74.3,74.0,30.09,ENE,75,0.0,0.0,99,0.00,,,0.00,Wunderground v.1.15,2017-07-25 12:38:00,
2017-07-25 07:48:00,74.8,74.5,30.10,ENE,75,0.0,0.0,99,0.00,,,0.00,Wunderground v.1.15,2017-07-25 12:48:00,
2017-07-25 07:53:00,75.0,74.7,30.10,ENE,75,0.0,0.0,99,0.00,,,0.00,Wunderground v.1.15,2017-07-25 12:53:00,
2017-07-25 07:58:00,75.2,74.9,30.10,ENE,75,0.0,0.0,99,0.00,,,0.00,Wunderground v.1.15,2017-07-25 12:58:00,
2017-07-25 08:03:00,75.5,75.2,30.10,ENE,75,0.0,0.0,99,0.00,,,0.00,Wunderground v.1.15,2017-07-25 13:03:00,
2017-07-25 08:13:00,76.0,76.0,30.10,ENE,75,0.0,0.0,100,0.00,,,0.00,Wunderground v.1.15,2017-07-25 13:13:00,
2017-07-25 08:23:00,76.6,76.6,30.10,ENE,75,0.0,0.0,100,0.00,,,0.00,Wunderground v.1.15,2017-07-25 13:23:00,
2017-07-25 08:28:00,77.0,76.7,30.10,ENE,75,0.0,0.0,99,0.00,,,0.00,Wunderground v.1.15,2017-07-25 13:28:00,
2017-07-25 08:33:00,77.3,77.0,30.11,ENE,75,0.0,0.0,99,0.00,,,0.00,Wunderground v.1.15,2017-07-25 13:33:00,
2017-07-25 08:43:00,77.5,77.2,30.11,ENE,75,0.0,0.0,99,0.00,,,0.00,Wunderground v.1.15,2017-07-25 13:43:00,
2017-07-25 08:48:00,77.9,77.6,30.11,ENE,75,0.0,0.0,99,0.00,,,0.00,Wunderground v.1.15,2017-07-25 13:48:00,
2017-07-25 08:53:00,78.1,77.8,30.11,ENE,75,0.0,0.0,99,0.00,,,0.00,Wunderground v.1.15,2017-07-25 13:53:00,
2017-07-25 08:58:00,78.2,77.9,30.11,ENE,75,0.0,0.0,99,0.00,,,0.00,Wunderground v.1.15,2017-07-25 13:58:00,
2017-07-25 09:03:00,78.4,78.1,30.11,ENE,75,0.0,0.0,99,0.00,,,0.00,Wunderground v.1.15,2017-07-25 14:03:00,
2017-07-25 09:13:00,78.8,78.5,30.11,ENE,75,0.0,0.0,99,0.00,,,0.00,Wunderground v.1.15,2017-07-25 14:13:00,
2017-07-25 09:18:00,78.5,78.2,30.11,ENE,75,0.0,0.0,99,0.00,,,0.00,Wunderground v.1.15,2017-07-25 14:18:00,
2017-07-25 09:28:00,79.0,78.7,30.12,ENE,75,0.0,0.0,99,0.00,,,0.00,Wunderground v.1.15,2017-07-25 14:28:00,
2017-07-25 09:33:00,79.3,79.0,30.12,ENE,75,0.0,0.0,99,0.00,,,0.00,Wunderground v.1.15,2017-07-25 14:33:00,
2017-07-25 09:38:00,79.5,79.2,30.12,NE,37,0.0,1.0,99,0.00,,,0.00,Wunderground v.1.15,2017-07-25 14:38:00,
2017-07-25 09:48:00,80.1,79.8,30.12,NNE,13,1.0,2.0,99,0.00,,,0.00,Wunderground v.1.15,2017-07-25 14:48:00,
2017-07-25 09:53:00,79.4,78.8,30.12,NNW,327,2.0,2.0,98,0.00,,,0.00,Wunderground v.1.15,2017-07-25 14:53:00,
2017-07-25 09:58:00,78.7,77.8,30.12,North,5,2.0,3.0,97,0.00,,,0.01,Wunderground v.1.15,2017-07-25 14:58:00,
2017-07-25 10:03:00,77.4,76.2,30.11,North,360,3.0,13.0,96,2.35,,,0.08,Wunderground v.1.15,2017-07-25 15:03:00,
2017-07-25 10:13:00,75.3,74.4,30.12,NNE,23,9.0,9.0,97,1.33,,,0.24,Wunderground v.1.15,2017-07-25 15:13:00,
2017-07-25 10:23:00,74.9,74.3,30.12,NNE,13,5.0,5.0,98,0.16,,,0.39,Wunderground v.1.15,2017-07-25 15:23:00,
2017-07-25 10:28:00,74.9,74.3,30.13,North,355,3.0,5.0,98,1.35,,,0.42,Wunderground v.1.15,2017-07-25 15:28:00,
2017-07-25 10:33:00,74.9,74.3,30.12,North,360,2.0,2.0,98,0.22,,,0.45,Wunderground v.1.15,2017-07-25 15:33:00,
2017-07-25 10:38:00,75.0,74.4,30.12,NE,34,2.0,3.0,98,0.08,,,0.45,Wunderground v.1.15,2017-07-25 15:38:00,
2017-07-25 10:48:00,75.1,74.8,30.12,NNW,348,3.0,3.0,99,0.21,,,0.50,Wunderground v.1.15,2017-07-25 15:48:00,
2017-07-25 10:53:00,75.3,75.0,30.12,NNW,348,1.0,1.0,99,0.08,,,0.50,Wunderground v.1.15,2017-07-25 15:53:00,
2017-07-25 10:58:00,75.7,75.4,30.13,NNW,347,0.0,2.0,99,0.35,,,0.52,Wunderground v.1.15,2017-07-25 15:58:00,
2017-07-25 11:08:00,75.9,75.6,30.13,NNW,342,1.0,1.0,99,0.85,,,0.61,Wunderground v.1.15,2017-07-25 16:08:00,
2017-07-25 11:13:00,75.5,75.2,30.12,NNW,342,0.0,0.0,99,1.91,,,0.68,Wunderground v.1.15,2017-07-25 16:13:00,
2017-07-25 11:18:00,75.0,74.4,30.11,NNW,342,0.0,0.0,98,0.41,,,0.75,Wunderground v.1.15,2017-07-25 16:18:00,
2017-07-25 11:28:00,74.6,74.3,30.11,NNW,342,0.0,0.0,99,0.09,,,0.76,Wunderground v.1.15,2017-07-25 16:28:00,
2017-07-25 11:33:00,74.6,74.3,30.11,NNW,342,0.0,0.0,99,0.05,,,0.76,Wunderground v.1.15,2017-07-25 16:33:00,
2017-07-25 11:38:00,74.9,74.6,30.11,NNW,342,0.0,0.0,99,0.04,,,0.76,Wunderground v.1.15,2017-07-25 16:38:00,
2017-07-25 11:43:00,74.9,74.6,30.12,NNW,342,0.0,0.0,99,0.00,,,0.76,Wunderground v.1.15,2017-07-25 16:43:00,
2017-07-25 11:48:00,75.0,74.7,30.12,NNW,342,0.0,0.0,99,0.00,,,0.76,Wunderground v.1.15,2017-07-25 16:48:00,
2017-07-25 11:58:00,74.6,74.3,30.15,North,5,0.0,5.0,99,3.56,,,1.07,Wunderground v.1.15,2017-07-25 16:58:00,
2017-07-25 12:03:00,73.4,72.8,30.15,SE,133,1.0,1.0,98,2.92,,,1.30,Wunderground v.1.15,2017-07-25 17:03:00,
2017-07-25 12:13:00,72.6,72.0,30.14,North,10,0.0,0.0,98,0.49,,,1.42,Wunderground v.1.15,2017-07-25 17:13:00,
2017-07-25 12:18:00,72.6,72.3,30.14,North,10,1.0,1.0,99,0.20,,,1.44,Wunderground v.1.15,2017-07-25 17:18:00,
2017-07-25 12:28:00,72.7,72.4,30.15,North,10,0.0,1.0,99,0.11,,,1.46,Wunderground v.1.15,2017-07-25 17:28:00,
2017-07-25 12:33:00,72.8,72.5,30.15,North,10,0.0,0.0,99,0.07,,,1.46,Wunderground v.1.15,2017-07-25 17:33:00,
2017-07-25 12:38:00,72.8,72.5,30.15,North,10,0.0,0.0,99,0.04,,,1.46,Wunderground v.1.15,2017-07-25 17:38:00,
2017-07-25 12:48:00,72.8,72.5,30.15,North,10,0.0,0.0,99,0.00,,,1.46,Wunderground v.1.15,2017-07-25 17:48:00,
2017-07-25 12:53:00,72.8,72.5,30.14,North,10,0.0,2.0,99,0.00,,,1.46,Wunderground v.1.15,2017-07-25 17:53:00,
2017-07-25 12:58:00,72.7,72.4,30.14,North,10,0.0,2.0,99,0.00,,,1.46,Wunderground v.1.15,2017-07-25 17:58:00,
2017-07-25 13:03:00,72.7,72.4,30.15,North,10,0.0,0.0,99,0.00,,,1.46,Wunderground v.1.15,2017-07-25 18:03:00,
2017-07-25 13:13:00,72.6,72.3,30.15,North,10,0.0,0.0,99,0.00,,,1.46,Wunderground v.1.15,2017-07-25 18:13:00,
2017-07-25 13:23:00,72.5,72.2,30.14,North,10,0.0,3.0,99,0.00,,,1.47,Wunderground v.1.15,2017-07-25 18:23:00,
2017-07-25 13:28:00,72.6,72.3,30.14,North,10,1.0,3.0,99,0.00,,,1.47,Wunderground v.1.15,2017-07-25 18:28:00,
2017-07-25 13:33:00,72.6,72.3,30.14,North,10,0.0,0.0,99,0.00,,,1.47,Wunderground v.1.15,2017-07-25 18:33:00,
2017-07-25 13:38:00,72.7,72.4,30.13,North,10,0.0,0.0,99,0.00,,,1.47,Wunderground v.1.15,2017-07-25 18:38:00,
2017-07-25 13:48:00,72.6,72.3,30.12,North,10,1.0,1.0,99,0.00,,,1.47,Wunderground v.1.15,2017-07-25 18:48:00,
2017-07-25 13:53:00,72.6,72.3,30.12,North,10,1.0,1.0,99,0.00,,,1.47,Wunderground v.1.15,2017-07-25 18:53:00,
2017-07-25 13:58:00,72.6,72.3,30.12,North,10,0.0,1.0,99,0.00,,,1.47,Wunderground v.1.15,2017-07-25 18:58:00,
2017-07-25 14:03:00,72.8,72.5,30.13,North,10,0.0,0.0,99,0.00,,,1.47,Wunderground v.1.15,2017-07-25 19:03:00,
2017-07-25 14:13:00,73.3,73.0,30.12,North,10,0.0,0.0,99,0.00,,,1.47,Wunderground v.1.15,2017-07-25 19:13:00,
2017-07-25 14:18:00,73.3,73.0,30.12,North,10,0.0,0.0,99,0.00,,,1.47,Wunderground v.1.15,2017-07-25 19:18:00,
2017-07-25 14:28:00,73.7,73.4,30.12,North,10,0.0,0.0,99,0.00,,,1.47,Wunderground v.1.15,2017-07-25 19:28:00,
2017-07-25 14:33:00,74.0,73.7,30.11,North,10,0.0,0.0,99,0.00,,,1.47,Wunderground v.1.15,2017-07-25 19:33:00,
2017-07-25 14:38:00,74.2,73.9,30.11,North,10,0.0,0.0,99,0.00,,,1.47,Wunderground v.1.15,2017-07-25 19:38:00,
2017-07-25 14:48:00,74.3,74.0,30.11,North,10,0.0,0.0,99,0.00,,,1.47,Wunderground v.1.15,2017-07-25 19:48:00,
2017-07-25 14:53:00,74.5,74.2,30.11,North,10,0.0,0.0,99,0.00,,,1.47,Wunderground v.1.15,2017-07-25 19:53:00,
2017-07-25 14:58:00,74.8,74.5,30.10,North,10,0.0,0.0,99,0.00,,,1.47,Wunderground v.1.15,2017-07-25 19:58:00,
2017-07-25 15:08:00,75.6,75.3,30.10,North,10,0.0,0.0,99,0.00,,,1.47,Wunderground v.1.15,2017-07-25 20:08:00,
2017-07-25 15:13:00,75.7,75.4,30.10,North,10,0.0,0.0,99,0.00,,,1.47,Wunderground v.1.15,2017-07-25 20:13:00,
2017-07-25 15:23:00,76.0,75.7,30.10,North,10,0.0,0.0,99,0.00,,,1.47,Wunderground v.1.15,2017-07-25 20:23:00,
2017-07-25 15:28:00,76.2,75.6,30.09,North,10,0.0,0.0,98,0.00,,,1.47,Wunderground v.1.15,2017-07-25 20:28:00,
2017-07-25 15:38:00,76.3,75.7,30.09,North,10,0.0,0.0,98,0.00,,,1.47,Wunderground v.1.15,2017-07-25 20:38:00,
2017-07-25 15:43:00,76.6,76.0,30.09,North,10,0.0,0.0,98,0.00,,,1.47,Wunderground v.1.15,2017-07-25 20:43:00,
2017-07-25 15:53:00,76.7,75.8,30.09,North,10,0.0,0.0,97,0.00,,,1.47,Wunderground v.1.15,2017-07-25 20:53:00,
2017-07-25 15:58:00,77.1,76.2,30.08,North,10,0.0,0.0,97,0.00,,,1.47,Wunderground v.1.15,2017-07-25 20:58:00,
2017-07-25 16:03:00,77.6,76.7,30.08,North,10,0.0,0.0,97,0.00,,,1.47,Wunderground v.1.15,2017-07-25 21:03:00,
2017-07-25 16:13:00,77.8,76.3,30.08,North,10,0.0,0.0,95,0.00,,,1.47,Wunderground v.1.15,2017-07-25 21:13:00,